Acapulco, Mexico

5:04 AM CDT on August 30, 2016 (GMT -0500)
Gen Juan N Alvarez International | | Change Station

Elev 16 ft 16.76 °N, 99.75 °W | Updated 19 minutes ago

Light Rain
Light Rain
75 °F
Feels Like 75 °F
N
7
Wind Variable Wind from NNE

Today
High -- | Low -- °F
--% Chance of Precip.
Yesterday
High -- | Low -- °F
Precip. -- in
Pressure 29.85 in
Visibility 6.0 miles
Clouds Scattered Clouds 1500 ft
Mostly Cloudy 8000 ft
Overcast 30000 ft
Dew Point 73 °F
Humidity 94%
Rainfall 2.05 in
Snow Depth Not available.
7:25 AM 7:53 PM
Waning Crescent, 4% visible
METAR MMAA 300945Z 03006KT 6SM -RA SCT015CB BKN080 OVC300 24/23 A2985 RMK 60205 8/963
Pressure 29.85 in
Visibility 6.0 miles
Clouds Scattered Clouds 1500 ft
Mostly Cloudy 8000 ft
Overcast 30000 ft
Dew Point 73 °F
Humidity 94%
Rainfall 2.05 in
Snow Depth Not available.
7:25 AM 7:53 PM
Waning Crescent, 4% visible
METAR MMAA 300945Z 03006KT 6SM -RA SCT015CB BKN080 OVC300 24/23 A2985 RMK 60205 8/963

10-Day Weather Forecast

No radar image for this location.
×

Almanac

Astronomy

Aug. 30, 2016 Rise Set
Actual Time
Civil Twilight
Nautical Twilight
Astronomical Twilight
Moon
Length of Visible Light
Length of Day
Tomorrow will be .
, % of the Moon is Illuminated

Today's Extremes

Country Highs Country Lows

Community

WunderPhotos

Upload Photos

1,935,795 photos uploaded!

WunderBlog® & News

Nearby

Air Quality

  Air Quality AQ Index Pollutant
Not available.

Snow Depth

Station Depth Elevation

Earthquake Activity

City Distance Mag. Time & Date
Minimum magnitude displayed is 2.5.

Coastal Water Temperatures

Place Temperature

Stations

Nearby Weather Stations

Station Location Temp. Windchill Dew Point Humidity Wind Precip. Elev Updated Type